Current Weather Conditions: station FHPF1

sailwx.info

Wind from 090 at 9 knots gusting 11

Air temperature 25.6° C

Last reported at 2019-Jul-17 02:54 UTC.
Time now 2019-Jul-17 04:34 UTC

Location: N 28°09' W 082°48'.
View on Google Maps.

See reports from other nearby stations

  
Tides and Currents Weather Stations Pressure Air Temp Water Temp Dewpoint Dewpoint Depression Visibility Wind Speed Wind Dir Waves Ship Positions
date/time (UTC)wind fromknots sea level pressurealtimeterstation pressurevisibilityair tempwater tempwave heightnotes
2019-Jul-17 02:54 090 9 gusting 11 25.6
2019-Jul-17 02:48 080 8 gusting 11 25.8
2019-Jul-17 01:54 030 6 gusting 7 25.5
2019-Jul-17 01:48 030 7 gusting 11 25.5
2019-Jul-17 00:54 130 12 gusting 13 29.5
2019-Jul-17 00:48 130 12 gusting 13 29.9
2019-Jul-17 00:42 060 7 gusting 13 30.5
2019-Jul-17 00:36 360 6 gusting 7 30.7
2019-Jul-17 00:30 360 6 gusting 8 30.7
2019-Jul-17 00:24 360 7 gusting 8 30.7
2019-Jul-17 00:18 360 7 gusting 9 30.7
2019-Jul-17 00:12 350 7 gusting 8 30.8
2019-Jul-17 00:06 350 6 gusting 8 30.7
2019-Jul-17 00:00 350 6 gusting 8 30.8
2019-Jul-16 23:54 350 6 gusting 8 30.8
2019-Jul-16 23:48 340 7 gusting 9 30.7
2019-Jul-16 23:42 340 8 gusting 9 30.8
2019-Jul-16 23:36 340 7 gusting 9 30.8
2019-Jul-16 23:30 340 7 gusting 8 30.8
2019-Jul-16 23:24 340 8 gusting 9 30.8
2019-Jul-16 23:18 340 8 gusting 11 30.9
2019-Jul-16 23:12 330 9 gusting 11 31.2
2019-Jul-16 23:06 330 7 gusting 11 31.5
2019-Jul-16 23:00 320 8 gusting 9 31.5
2019-Jul-16 22:54 330 8 gusting 11 31.2
2019-Jul-16 22:48 320 7 gusting 9 31.5
2019-Jul-16 22:42 320 7 gusting 9 31.4
2019-Jul-16 22:36 330 9 gusting 11 30.9
2019-Jul-16 22:30 330 9 gusting 11 30.7
2019-Jul-16 22:24 330 8 gusting 11 31.1
2019-Jul-16 22:18 330 9 gusting 12 31.3
2019-Jul-16 22:12 330 9 gusting 12 31.6
2019-Jul-16 22:06 330 9 gusting 12 31.4
2019-Jul-16 22:00 330 8 gusting 11 31.7
2019-Jul-16 21:54 310 7 gusting 9 32.0
2019-Jul-16 21:48 320 8 gusting 11 31.8
2019-Jul-16 20:54 320 8 gusting 11 31.9
2019-Jul-16 20:48 310 7 gusting 9 31.9
2019-Jul-16 19:54 310 7 gusting 8 31.9
2019-Jul-16 19:48 310 7 gusting 8 32.0
2019-Jul-16 18:54 320 8 gusting 11 31.7
2019-Jul-16 18:48 330 8 gusting 9 31.5
2019-Jul-16 17:54 350 7 gusting 9 30.4
2019-Jul-16 17:48 350 7 gusting 8 30.3
2019-Jul-16 17:42 340 7 gusting 8 30.2
2019-Jul-16 17:36 350 7 gusting 8 30.3
2019-Jul-16 17:30 350 8 gusting 9 30.3
2019-Jul-16 17:24 350 7 gusting 8 30.6
2019-Jul-16 17:18 350 7 gusting 8 30.1
2019-Jul-16 17:12 350 7 gusting 8 30.2
2019-Jul-16 17:06 340 6 gusting 7 30.1
2019-Jul-16 17:00 340 6 gusting 7 30.4
2019-Jul-16 16:54 340 6 gusting 7 30.4
2019-Jul-16 16:48 340 6 gusting 6 30.7
2019-Jul-16 15:54 290 2 gusting 4 30.6
2019-Jul-16 15:48 290 4 gusting 5 30.6
2019-Jul-16 14:54 210 2 gusting 4 29.7
2019-Jul-16 14:48 210 2 gusting 4 29.6
2019-Jul-16 14:42 200 2 gusting 5 29.6
2019-Jul-16 14:36 180 0 gusting 4 29.8
2019-Jul-16 14:30 160 1 gusting 2 29.7
2019-Jul-16 14:24 180 4 gusting 5 29.4
2019-Jul-16 14:18 180 4 gusting 6 29.4
2019-Jul-16 14:12 170 2 gusting 5 29.4
2019-Jul-16 14:06 180 5 gusting 6 29.3
2019-Jul-16 14:00 180 5 gusting 6 29.2
2019-Jul-16 13:54 180 6 gusting 7 29.1
2019-Jul-16 13:48 170 6 gusting 7 29.2
2019-Jul-16 12:54 160 6 gusting 6 28.2
2019-Jul-16 12:48 160 6 gusting 6 28.0
2019-Jul-16 11:54 140 6 gusting 6 26.9
2019-Jul-16 11:48 130 5 gusting 6 26.9
2019-Jul-16 10:54 120 6 gusting 6 26.5
2019-Jul-16 10:48 130 6 gusting 6 26.4
2019-Jul-16 09:54 120 6 gusting 7 26.8
2019-Jul-16 09:48 110 6 gusting 8 26.7
2019-Jul-16 08:54 120 6 gusting 7 26.8
2019-Jul-16 08:48 120 6 gusting 8 26.8
2019-Jul-16 07:54 120 7 gusting 11 27.3
2019-Jul-16 07:48 110 7 gusting 9 27.3
2019-Jul-16 07:42 110 7 gusting 9 27.4
2019-Jul-16 07:36 120 7 gusting 9 27.4
2019-Jul-16 07:30 120 7 gusting 9 27.5
2019-Jul-16 07:24 110 6 gusting 8 27.5
2019-Jul-16 07:18 110 6 gusting 8 27.5
2019-Jul-16 07:12 110 6 gusting 8 27.5
2019-Jul-16 07:06 110 6 gusting 8 27.5
2019-Jul-16 07:00 110 6 gusting 7 27.4
2019-Jul-16 06:54 100 6 gusting 7 27.2
2019-Jul-16 06:48 100 6 gusting 7 27.2
2019-Jul-16 05:54 080 6 gusting 7 27.1
2019-Jul-16 05:48 080 6 gusting 7 27.2
2019-Jul-16 04:54 090 5 gusting 6 27.3
2019-Jul-16 04:48 090 5 gusting 6 27.3
2019-Jul-16 03:54 080 5 gusting 6 28.0
2019-Jul-16 03:48 090 4 gusting 5 28.0
2019-Jul-16 02:54 090 4 gusting 5 28.4
2019-Jul-16 02:48 080 4 gusting 5 28.4
2019-Jul-16 01:54 100 5 gusting 6 29.1
2019-Jul-16 01:48 100 6 gusting 6 29.2
2019-Jul-16 00:54 040 5 gusting 6 29.2
2019-Jul-16 00:48 050 6 gusting 7 29.2
2019-Jul-15 23:54 060 6 gusting 6 30.4
2019-Jul-15 23:48 080 4 gusting 6 30.5
2019-Jul-15 23:42 070 5 gusting 6 30.5
2019-Jul-15 23:36 080 6 gusting 8 30.5
2019-Jul-15 23:30 070 6 gusting 8 30.5
2019-Jul-15 23:24 020 6 gusting 7 30.4
2019-Jul-15 23:18 010 6 gusting 7 30.5
2019-Jul-15 23:12 010 7 gusting 8 30.5
2019-Jul-15 23:06 010 8 gusting 11 30.5
2019-Jul-15 23:00 360 7 gusting 11 30.6
2019-Jul-15 22:54 360 9 gusting 11 30.5
2019-Jul-15 22:48 010 8 gusting 9 30.6
2019-Jul-15 22:42 360 8 gusting 9 30.9
2019-Jul-15 22:36 360 7 gusting 9 30.8
2019-Jul-15 22:30 360 8 gusting 9 30.8
2019-Jul-15 22:24 360 11 gusting 13 30.7
2019-Jul-15 22:18 360 9 gusting 12 30.7
2019-Jul-15 22:12 350 9 gusting 12 30.5
2019-Jul-15 22:06 350 11 gusting 12 30.4
2019-Jul-15 22:00 350 11 gusting 13 30.4
2019-Jul-15 21:54 360 11 gusting 13 30.6
2019-Jul-15 21:48 360 9 gusting 12 30.5
2019-Jul-15 20:54 340 9 gusting 11 30.2
2019-Jul-15 20:48 340 8 gusting 11 30.2
2019-Jul-15 20:42 340 9 gusting 11 30.4
2019-Jul-15 20:36 330 8 gusting 9 30.9
2019-Jul-15 20:30 330 8 gusting 9 30.5
2019-Jul-15 20:24 330 9 gusting 11 30.6
2019-Jul-15 20:18 330 8 gusting 11 31.1
2019-Jul-15 20:12 320 8 gusting 11 31.4
2019-Jul-15 20:06 330 11 gusting 12 30.8
2019-Jul-15 20:00 320 9 gusting 11 31.1
2019-Jul-15 19:54 330 9 gusting 12 30.7
2019-Jul-15 19:48 330 9 gusting 11 30.8
2019-Jul-15 19:42 320 9 gusting 12 31.0
2019-Jul-15 19:36 330 9 gusting 12 31.1
2019-Jul-15 18:54 300 7 gusting 9 30.6
2019-Jul-15 18:48 290 7 gusting 8 30.9
2019-Jul-15 17:54 280 7 gusting 8 30.2
2019-Jul-15 17:48 280 6 gusting 8 30.1
2019-Jul-15 17:42 290 6 gusting 8 30.5
2019-Jul-15 17:36 290 6 gusting 8 30.6
2019-Jul-15 17:30 290 6 gusting 8 30.5
2019-Jul-15 17:24 290 7 gusting 8 30.5
2019-Jul-15 17:18 300 6 gusting 8 30.8
2019-Jul-15 17:12 310 6 gusting 7 31.0
2019-Jul-15 17:06 320 6 gusting 7 31.0
2019-Jul-15 17:00 320 6 gusting 7 30.8
2019-Jul-15 16:54 320 6 gusting 8 30.8
2019-Jul-15 16:48 330 6 gusting 7 30.6
2019-Jul-15 15:54 290 5 gusting 6 30.0
2019-Jul-15 15:48 290 5 gusting 6 30.0
2019-Jul-15 15:42 290 5 gusting 6 30.0
2019-Jul-15 15:36 290 4 gusting 5 30.1
2019-Jul-15 15:30 300 2 gusting 4 30.0
2019-Jul-15 15:24 300 4 gusting 5 30.0
2019-Jul-15 15:18 290 4 gusting 5 29.7
2019-Jul-15 15:12 300 4 gusting 5 29.6
2019-Jul-15 15:06 300 4 gusting 5 29.8
2019-Jul-15 15:00 330 2 gusting 4 29.7
2019-Jul-15 14:54 310 2 gusting 2 30.1
2019-Jul-15 14:48 280 1 gusting 2 30.0
2019-Jul-15 14:42 270 1 gusting 2 29.7
2019-Jul-15 14:36 290 2 gusting 4 29.8
2019-Jul-15 14:30 270 2 gusting 4 29.4
2019-Jul-15 14:24 250 1 gusting 2 29.2
2019-Jul-15 14:18 240 1 gusting 2 29.0
2019-Jul-15 14:12 230 1 gusting 2 29.0
2019-Jul-15 14:06 230 1 gusting 2 28.8
2019-Jul-15 14:00 210 1 gusting 2 28.7
2019-Jul-15 13:54 200 2 gusting 4 28.6
2019-Jul-15 13:48 190 2 gusting 5 28.6
2019-Jul-15 12:54 150 5 gusting 6 27.6
2019-Jul-15 12:48 160 5 gusting 6 27.6
2019-Jul-15 11:54 130 4 gusting 6 26.7
2019-Jul-15 11:48 130 2 gusting 4 26.7
2019-Jul-15 10:54 120 4 gusting 5 26.5
2019-Jul-15 10:48 120 4 gusting 5 26.5
2019-Jul-15 10:42 120 4 gusting 4 26.3
2019-Jul-15 10:36 120 4 gusting 5 26.5
2019-Jul-15 10:30 130 2 gusting 4 26.4
2019-Jul-15 10:24 130 4 gusting 4 26.4
2019-Jul-15 10:18 120 4 gusting 5 26.5
2019-Jul-15 10:12 130 4 gusting 6 26.5
2019-Jul-15 10:06 130 5 gusting 6 26.5
2019-Jul-15 10:00 140 6 gusting 6 26.5
2019-Jul-15 09:54 140 6 gusting 6 26.6
2019-Jul-15 09:48 140 6 gusting 6 26.7
2019-Jul-15 08:54 110 2 gusting 4 27.1
2019-Jul-15 08:48 110 2 gusting 2 27.2
2019-Jul-15 07:54 120 4 gusting 4 27.5
2019-Jul-15 07:48 120 2 gusting 4 27.6
2019-Jul-15 06:54 140 6 gusting 6 28.0
2019-Jul-15 06:48 140 6 gusting 6 28.1
2019-Jul-15 06:42 130 6 gusting 6 28.1
2019-Jul-15 06:36 140 6 gusting 6 28.2
2019-Jul-15 05:54 110 4 gusting 5 28.3
2019-Jul-15 05:48 110 2 gusting 5 28.3
2019-Jul-15 05:42 110 2 gusting 4 28.2
2019-Jul-15 05:36 110 1 gusting 2 28.2
2019-Jul-15 05:30 100 1 gusting 2 28.3
2019-Jul-15 05:24 100 2 gusting 4 28.3
2019-Jul-15 05:18 100 1 gusting 2 28.3
2019-Jul-15 05:12 100 2 gusting 4 28.4
2019-Jul-15 05:06 110 2 gusting 5 28.4
2019-Jul-15 05:00 090 4 gusting 5 28.4
2019-Jul-15 04:54 100 4 gusting 5 28.5
2019-Jul-15 04:48 100 4 gusting 5 28.5